createdAt,value
2023-01-23T00:00:48.089Z,21.00
2023-01-23T00:02:21.473Z,21.38
2023-01-23T00:03:55.509Z,21.33
2023-01-23T00:05:33.903Z,21.80
2023-01-23T00:07:07.323Z,20.47
2023-01-23T00:08:40.151Z,21.65
2023-01-23T00:10:13.756Z,20.63
2023-01-23T00:11:47.123Z,21.07
2023-01-23T00:13:21.861Z,22.60
2023-01-23T00:14:55.209Z,21.93
2023-01-23T00:16:30.856Z,22.35
2023-01-23T00:18:04.426Z,21.58
2023-01-23T00:19:37.788Z,21.30
2023-01-23T00:21:12.046Z,21.30
2023-01-23T00:22:45.572Z,20.73
2023-01-23T00:24:19.001Z,20.37
2023-01-23T00:25:51.351Z,21.10
2023-01-23T00:27:24.731Z,21.55
2023-01-23T00:28:58.618Z,19.95
2023-01-23T00:30:32.004Z,21.33
2023-01-23T00:32:05.576Z,20.53
2023-01-23T00:33:38.953Z,22.07
2023-01-23T00:35:12.346Z,21.63
2023-01-23T00:36:46.342Z,20.60
2023-01-23T00:38:18.757Z,21.15
2023-01-23T00:39:52.823Z,22.40
2023-01-23T00:41:25.689Z,21.90
2023-01-23T00:42:59.971Z,20.37
2023-01-23T00:44:35.002Z,22.73
2023-01-23T00:46:07.430Z,22.97
2023-01-23T00:47:40.826Z,22.63
2023-01-23T00:49:14.186Z,23.10
2023-01-23T00:50:50.606Z,21.53
2023-01-23T00:52:24.020Z,22.80
2023-01-23T00:53:57.546Z,21.53
2023-01-23T00:55:30.878Z,22.75
2023-01-23T00:57:04.264Z,21.50
2023-01-23T00:58:37.859Z,21.95
2023-01-23T01:00:13.541Z,22.00
2023-01-23T01:01:47.303Z,22.20
2023-01-23T01:03:20.510Z,21.40
2023-01-23T01:04:53.902Z,21.13
2023-01-23T01:06:29.772Z,20.63
2023-01-23T01:08:03.974Z,21.43
2023-01-23T01:09:36.542Z,20.03
2023-01-23T01:11:09.903Z,22.23
2023-01-23T01:12:43.704Z,23.03
2023-01-23T01:14:16.294Z,22.15
2023-01-23T01:15:51.689Z,22.50
2023-01-23T01:17:25.262Z,21.00
2023-01-23T01:18:58.631Z,22.03
2023-01-23T01:20:32.237Z,21.57
2023-01-23T01:22:05.608Z,22.40
2023-01-23T01:23:39.074Z,21.80
2023-01-23T01:25:12.678Z,21.60
2023-01-23T01:26:46.048Z,21.53
2023-01-23T01:28:19.491Z,20.60
2023-01-23T01:29:54.493Z,20.33
2023-01-23T01:31:29.479Z,20.77
2023-01-23T01:33:02.896Z,20.00
2023-01-23T01:34:36.997Z,20.90
2023-01-23T01:36:10.163Z,21.73
2023-01-23T01:37:44.771Z,19.53
2023-01-23T01:39:18.128Z,20.53
2023-01-23T01:40:51.691Z,20.00
2023-01-23T01:42:28.248Z,21.10
2023-01-23T01:44:01.627Z,20.03
2023-01-23T01:45:53.645Z,19.17
2023-01-23T01:47:28.988Z,19.90
2023-01-23T01:49:05.440Z,21.03
2023-01-23T01:50:37.953Z,19.23
2023-01-23T01:52:12.646Z,20.40
2023-01-23T01:53:48.307Z,20.60
2023-01-23T01:55:21.683Z,21.53
2023-01-23T01:56:57.281Z,19.77
2023-01-23T01:58:30.091Z,20.27
2023-01-23T02:00:07.747Z,19.60
2023-01-23T02:01:49.204Z,21.30
2023-01-23T02:03:24.045Z,20.83
2023-01-23T02:05:00.418Z,21.37
2023-01-23T02:06:32.852Z,19.67
2023-01-23T02:08:08.407Z,19.50
2023-01-23T02:09:42.487Z,20.23
2023-01-23T02:11:18.506Z,20.50
2023-01-23T02:12:52.714Z,20.70
2023-01-23T02:14:26.081Z,19.97
2023-01-23T02:15:59.388Z,20.13
2023-01-23T02:17:33.165Z,20.73
2023-01-23T02:19:14.054Z,20.90
2023-01-23T02:20:48.469Z,19.67
2023-01-23T02:22:32.743Z,18.87
2023-01-23T02:24:19.622Z,19.37
2023-01-23T02:25:59.929Z,18.33
2023-01-23T02:27:34.550Z,19.23
2023-01-23T02:29:09.197Z,19.40
2023-01-23T02:30:51.608Z,19.37
2023-01-23T02:32:28.145Z,18.67
2023-01-23T02:34:01.925Z,18.93
2023-01-23T02:35:34.451Z,20.50
2023-01-23T02:37:14.490Z,21.53
2023-01-23T02:38:54.205Z,20.07
2023-01-23T02:40:32.196Z,19.95
2023-01-23T02:42:08.547Z,19.23
2023-01-23T02:43:49.556Z,19.20
2023-01-23T02:45:22.947Z,20.37
2023-01-23T02:46:57.566Z,20.53
2023-01-23T02:48:31.886Z,22.67
2023-01-23T02:50:07.388Z,22.67
2023-01-23T02:51:41.228Z,22.40
2023-01-23T02:53:14.758Z,22.37
2023-01-23T02:54:48.130Z,21.07
2023-01-23T02:56:21.290Z,21.17
2023-01-23T02:58:16.908Z,23.03
2023-01-23T03:00:08.143Z,22.23
2023-01-23T03:01:42.438Z,22.37
2023-01-23T03:03:16.645Z,21.93
2023-01-23T03:04:50.021Z,22.10
2023-01-23T03:06:22.606Z,21.73
2023-01-23T03:07:58.159Z,21.63
2023-01-23T03:09:31.637Z,22.43
2023-01-23T03:11:06.270Z,22.65
2023-01-23T03:12:43.335Z,22.63
2023-01-23T03:14:18.780Z,22.10
2023-01-23T03:15:52.973Z,21.70
2023-01-23T03:17:26.536Z,22.55
2023-01-23T03:19:01.835Z,22.23
2023-01-23T03:20:39.794Z,21.30
2023-01-23T03:22:13.239Z,22.35
2023-01-23T03:23:47.743Z,22.58
2023-01-23T03:25:21.093Z,22.45
2023-01-23T03:26:53.509Z,23.23
2023-01-23T03:28:48.537Z,22.65
2023-01-23T03:30:25.525Z,21.95
2023-01-23T03:31:58.054Z,22.55
2023-01-23T03:33:31.451Z,22.83
2023-01-23T03:35:04.849Z,22.73
2023-01-23T03:36:38.979Z,21.83
2023-01-23T03:38:14.323Z,21.13
2023-01-23T03:40:05.417Z,21.37
2023-01-23T03:41:41.849Z,22.13
2023-01-23T03:43:15.280Z,21.53
2023-01-23T03:44:54.241Z,21.45
2023-01-23T03:46:31.273Z,21.63
2023-01-23T03:48:04.699Z,20.67
2023-01-23T03:49:37.473Z,22.23
2023-01-23T03:51:10.936Z,19.47
2023-01-23T03:52:44.417Z,20.33
2023-01-23T03:54:17.836Z,19.37
2023-01-23T03:55:51.387Z,20.50
2023-01-23T03:57:25.557Z,20.75
2023-01-23T03:59:04.773Z,20.35
2023-01-23T04:00:38.927Z,20.92
2023-01-23T04:02:15.453Z,21.20
2023-01-23T04:03:49.019Z,20.53
2023-01-23T04:05:22.669Z,19.52
2023-01-23T04:06:56.057Z,20.20
2023-01-23T04:08:29.734Z,20.47
2023-01-23T04:10:03.451Z,20.23
2023-01-23T04:11:36.814Z,20.48
2023-01-23T04:13:10.906Z,20.57
2023-01-23T04:14:44.916Z,21.53
2023-01-23T04:16:22.072Z,20.97
2023-01-23T04:17:56.801Z,19.23
2023-01-23T04:19:31.938Z,21.23
2023-01-23T04:21:05.501Z,19.37
2023-01-23T04:22:38.891Z,21.38
2023-01-23T04:24:12.315Z,20.23
2023-01-23T04:25:45.681Z,19.70
2023-01-23T04:27:20.481Z,20.47
2023-01-23T04:28:53.901Z,20.43
2023-01-23T04:30:26.329Z,22.50
2023-01-23T04:31:59.842Z,21.23
2023-01-23T04:33:36.169Z,21.83
2023-01-23T04:35:10.175Z,22.07
2023-01-23T04:36:46.899Z,21.38
2023-01-23T04:38:19.383Z,21.38
2023-01-23T04:39:53.129Z,20.53
2023-01-23T04:41:27.619Z,20.30
2023-01-23T04:43:08.593Z,21.85
2023-01-23T04:44:50.287Z,20.58
2023-01-23T04:46:55.726Z,20.53
2023-01-23T04:48:30.501Z,21.17
2023-01-23T04:50:05.495Z,21.13
2023-01-23T04:51:41.100Z,22.00
2023-01-23T04:53:15.104Z,21.40
2023-01-23T04:54:49.509Z,21.67
2023-01-23T04:56:23.005Z,20.95
2023-01-23T04:57:57.017Z,21.07
2023-01-23T04:59:32.567Z,21.03
2023-01-23T05:01:06.050Z,21.13
2023-01-23T05:02:41.013Z,20.90
2023-01-23T05:04:13.994Z,21.17
2023-01-23T05:05:49.066Z,22.00
2023-01-23T05:07:22.458Z,22.00
2023-01-23T05:09:10.471Z,23.07
2023-01-23T05:10:46.894Z,23.13
2023-01-23T05:12:23.766Z,20.93
2023-01-23T05:13:58.604Z,21.98
2023-01-23T05:15:32.446Z,21.73
2023-01-23T05:17:05.841Z,22.53
2023-01-23T05:18:43.159Z,21.60
2023-01-23T05:20:16.757Z,21.60
2023-01-23T05:21:50.981Z,20.45
2023-01-23T05:23:27.360Z,20.20
2023-01-23T05:25:00.638Z,21.02
2023-01-23T05:26:37.996Z,21.07
2023-01-23T05:28:11.859Z,20.73
2023-01-23T05:29:50.264Z,21.40
2023-01-23T05:31:30.530Z,19.52
2023-01-23T05:33:32.924Z,20.00
2023-01-23T05:35:06.630Z,20.20
2023-01-23T05:36:40.048Z,20.33
2023-01-23T05:38:15.285Z,20.27
2023-01-23T05:39:50.072Z,20.67
2023-01-23T05:41:25.716Z,19.63
2023-01-23T05:43:19.301Z,20.33
2023-01-23T05:45:11.528Z,21.43
2023-01-23T05:46:48.263Z,20.47
2023-01-23T05:48:21.667Z,20.47
2023-01-23T05:49:55.107Z,22.37
2023-01-23T05:51:33.870Z,21.67
2023-01-23T05:53:07.500Z,20.20
2023-01-23T05:54:44.237Z,19.77
2023-01-23T05:56:19.418Z,19.00
2023-01-23T05:58:15.098Z,19.03
2023-01-23T06:00:07.941Z,19.33
2023-01-23T06:02:01.620Z,21.52
2023-01-23T06:03:58.282Z,21.53
2023-01-23T06:05:41.921Z,22.42
2023-01-23T06:07:22.517Z,22.40
2023-01-23T06:09:00.605Z,23.37
2023-01-23T06:10:35.381Z,22.37
2023-01-23T06:12:09.603Z,24.15
2023-01-23T06:13:42.996Z,23.48
2023-01-23T06:15:16.482Z,23.90
2023-01-23T06:16:51.157Z,23.70
2023-01-23T06:18:25.165Z,24.08
2023-01-23T06:20:00.333Z,23.63
2023-01-23T06:21:34.132Z,24.05
2023-01-23T06:23:08.196Z,24.03
2023-01-23T06:24:43.097Z,22.92
2023-01-23T06:26:17.849Z,24.03
2023-01-23T06:27:52.949Z,23.47
2023-01-23T06:29:27.481Z,23.27
2023-01-23T06:31:04.243Z,22.83
2023-01-23T06:32:54.612Z,22.03
2023-01-23T06:34:34.279Z,22.03
2023-01-23T06:36:10.171Z,22.87
2023-01-23T06:37:44.577Z,22.85
2023-01-23T06:39:21.884Z,22.50
2023-01-23T06:40:56.973Z,21.42
2023-01-23T06:42:36.099Z,20.20
2023-01-23T06:44:10.914Z,20.10
2023-01-23T06:45:44.773Z,22.23
2023-01-23T06:47:19.044Z,22.10
2023-01-23T06:48:57.349Z,22.98
2023-01-23T06:50:30.779Z,21.97
2023-01-23T06:52:04.144Z,21.00
2023-01-23T06:53:37.539Z,21.43
2023-01-23T06:55:13.239Z,22.60
2023-01-23T06:56:49.322Z,22.50
2023-01-23T06:58:24.050Z,21.87
2023-01-23T06:59:57.440Z,20.30
2023-01-23T07:01:30.994Z,22.67
2023-01-23T07:03:27.676Z,21.10
2023-01-23T07:05:01.077Z,22.57
2023-01-23T07:06:34.542Z,21.80
2023-01-23T07:08:08.229Z,21.13
2023-01-23T07:09:41.658Z,20.23
2023-01-23T07:11:20.492Z,20.80
2023-01-23T07:12:54.185Z,20.80
2023-01-23T07:14:28.925Z,21.37
2023-01-23T07:16:03.757Z,21.40
2023-01-23T07:17:37.251Z,21.73
2023-01-23T07:19:10.635Z,21.73
2023-01-23T07:20:46.102Z,20.93
2023-01-23T07:22:19.648Z,21.70
2023-01-23T07:23:53.008Z,19.93
2023-01-23T07:25:26.914Z,22.13
2023-01-23T07:27:00.490Z,22.70
2023-01-23T07:28:33.849Z,22.20
2023-01-23T07:30:09.500Z,22.63
2023-01-23T07:31:42.883Z,23.37
2023-01-23T07:33:16.291Z,23.37
2023-01-23T07:34:49.686Z,22.88
2023-01-23T07:36:23.042Z,23.17
2023-01-23T07:37:56.413Z,24.70
2023-01-23T07:39:29.787Z,24.63
2023-01-23T07:41:03.228Z,25.07
2023-01-23T07:42:36.597Z,23.37
2023-01-23T07:44:10.089Z,23.83
2023-01-23T07:45:45.031Z,23.48
2023-01-23T07:47:18.467Z,23.50
2023-01-23T07:48:51.831Z,24.20
2023-01-23T07:50:25.387Z,23.30
2023-01-23T07:51:58.764Z,24.37
2023-01-23T07:53:32.400Z,24.00
2023-01-23T07:55:06.719Z,23.37
2023-01-23T07:56:40.282Z,24.37
2023-01-23T07:58:13.641Z,24.00
2023-01-23T07:59:47.099Z,25.50
2023-01-23T08:01:21.816Z,24.57
2023-01-23T08:02:55.223Z,22.40
2023-01-23T08:04:28.951Z,24.37
2023-01-23T08:06:02.339Z,23.40
2023-01-23T08:07:35.716Z,24.17
2023-01-23T08:09:09.116Z,23.83
2023-01-23T08:10:42.633Z,25.05
2023-01-23T08:12:15.985Z,23.80
2023-01-23T08:13:50.594Z,23.47
2023-01-23T08:15:23.987Z,24.40
2023-01-23T08:16:58.840Z,24.93
2023-01-23T08:18:32.544Z,24.50
2023-01-23T08:20:06.427Z,23.70
2023-01-23T08:21:39.784Z,24.15
2023-01-23T08:23:13.152Z,22.92
2023-01-23T08:24:47.235Z,23.83
2023-01-23T08:26:20.609Z,23.17
2023-01-23T08:27:53.963Z,24.17
2023-01-23T08:29:27.737Z,23.33
2023-01-23T08:31:03.816Z,24.00
2023-01-23T08:32:40.180Z,22.97
2023-01-23T08:34:13.562Z,23.60
2023-01-23T08:35:50.569Z,25.30
2023-01-23T08:37:24.415Z,44.65
2023-01-23T08:38:57.980Z,36.57
2023-01-23T08:40:31.499Z,27.10
2023-01-23T08:42:05.024Z,29.60
2023-01-23T08:43:38.387Z,30.97
2023-01-23T08:45:12.186Z,43.67
2023-01-23T08:46:46.912Z,48.17
2023-01-23T08:48:22.288Z,38.13
2023-01-23T08:49:55.674Z,32.03
2023-01-23T08:51:29.097Z,30.27
2023-01-23T08:53:02.630Z,27.00
2023-01-23T08:54:36.023Z,27.70
2023-01-23T08:56:10.068Z,28.33
2023-01-23T08:57:43.467Z,28.53
2023-01-23T08:59:16.852Z,34.53
2023-01-23T09:00:50.274Z,37.37
2023-01-23T09:02:23.714Z,25.63
2023-01-23T09:03:58.574Z,26.47
2023-01-23T09:05:32.770Z,23.63
2023-01-23T09:07:06.146Z,25.30
2023-01-23T09:08:39.528Z,24.53
2023-01-23T09:10:13.796Z,25.67
2023-01-23T09:11:47.465Z,26.43
2023-01-23T09:13:20.833Z,27.07
2023-01-23T09:14:54.733Z,25.60
2023-01-23T09:16:28.331Z,24.87
2023-01-23T09:18:01.739Z,23.60
2023-01-23T09:19:36.815Z,22.83
2023-01-23T09:21:11.413Z,23.40
2023-01-23T09:22:44.952Z,23.13
2023-01-23T09:24:18.318Z,23.27
2023-01-23T09:25:51.715Z,21.77
2023-01-23T09:27:25.418Z,23.53
2023-01-23T09:28:58.823Z,23.20
2023-01-23T09:30:32.270Z,22.63
2023-01-23T09:32:05.802Z,22.93
2023-01-23T09:33:39.404Z,23.93
2023-01-23T09:35:14.181Z,23.63
2023-01-23T09:36:47.574Z,23.67
2023-01-23T09:38:21.202Z,23.60
2023-01-23T09:39:54.583Z,23.57
2023-01-23T09:41:29.091Z,23.60
2023-01-23T09:43:05.318Z,23.50
2023-01-23T09:44:39.835Z,23.30
2023-01-23T09:46:20.116Z,24.30
2023-01-23T09:47:55.849Z,26.73
2023-01-23T09:49:32.969Z,25.53
2023-01-23T09:51:13.975Z,24.97
2023-01-23T09:52:50.635Z,25.23
2023-01-23T09:54:37.707Z,24.87
2023-01-23T09:56:16.660Z,23.93
2023-01-23T09:57:52.951Z,23.20
2023-01-23T09:59:29.914Z,23.50
2023-01-23T10:01:03.340Z,23.60
2023-01-23T10:02:36.802Z,24.80
2023-01-23T10:04:12.817Z,24.30
2023-01-23T10:05:49.334Z,24.97
2023-01-23T10:07:29.328Z,23.23
2023-01-23T10:09:13.822Z,22.00
2023-01-23T10:10:55.998Z,21.77
2023-01-23T10:12:34.171Z,21.57
2023-01-23T10:14:17.429Z,22.13
2023-01-23T10:16:02.485Z,22.20
2023-01-23T10:17:39.640Z,21.57
2023-01-23T10:19:19.113Z,22.70
2023-01-23T10:20:55.866Z,21.27
2023-01-23T10:22:36.110Z,21.77
2023-01-23T10:24:26.268Z,21.57
2023-01-23T10:26:00.333Z,22.03
2023-01-23T10:27:35.221Z,21.47
2023-01-23T10:29:14.962Z,22.27
2023-01-23T10:30:49.677Z,36.37
2023-01-23T10:32:25.900Z,62.63
2023-01-23T10:34:05.390Z,40.00
2023-01-23T10:35:42.115Z,37.47
2023-01-23T10:37:17.255Z,125.57
2023-01-23T10:38:56.241Z,34.00
2023-01-23T10:40:47.533Z,106.10
2023-01-23T10:42:23.747Z,46.40
2023-01-23T10:43:58.085Z,23.97
2023-01-23T10:45:31.939Z,21.87
2023-01-23T10:47:06.234Z,21.97
2023-01-23T10:48:42.271Z,22.60
2023-01-23T10:50:15.773Z,21.53
2023-01-23T10:51:50.656Z,21.13
2023-01-23T10:53:24.957Z,20.63
2023-01-23T10:55:00.748Z,21.30
2023-01-23T10:56:34.872Z,19.97
2023-01-23T10:58:24.472Z,21.57
2023-01-23T11:00:00.450Z,20.27
2023-01-23T11:01:35.112Z,18.57
2023-01-23T11:03:28.609Z,18.93
2023-01-23T11:05:02.774Z,19.90
2023-01-23T11:06:36.161Z,19.67
2023-01-23T11:08:24.148Z,19.37
2023-01-23T11:09:58.314Z,19.47
2023-01-23T11:11:33.714Z,19.63
2023-01-23T11:13:07.102Z,19.47
2023-01-23T11:14:40.490Z,21.13
2023-01-23T11:16:15.830Z,20.27
2023-01-23T11:17:49.568Z,19.70
2023-01-23T11:19:24.337Z,20.00
2023-01-23T11:20:57.821Z,18.97
2023-01-23T11:22:32.851Z,20.37
2023-01-23T11:24:11.154Z,19.93
2023-01-23T11:25:45.681Z,20.97
2023-01-23T11:27:24.313Z,19.80
2023-01-23T11:28:57.780Z,20.60
2023-01-23T11:30:40.205Z,19.90
2023-01-23T11:32:15.474Z,19.37
2023-01-23T11:33:53.177Z,19.83
2023-01-23T11:35:29.236Z,22.63
2023-01-23T11:37:06.397Z,22.17
2023-01-23T11:38:51.318Z,21.27
2023-01-23T11:40:25.947Z,20.07
2023-01-23T11:41:59.450Z,21.63
2023-01-23T11:43:34.194Z,21.73
2023-01-23T11:45:14.003Z,20.33
2023-01-23T11:46:56.551Z,20.03
2023-01-23T11:48:35.076Z,18.90
2023-01-23T11:50:23.924Z,19.83
2023-01-23T11:52:01.925Z,18.73
2023-01-23T11:53:43.024Z,18.87
2023-01-23T11:55:28.736Z,19.87
2023-01-23T11:57:04.683Z,21.03
2023-01-23T11:58:50.535Z,19.37
2023-01-23T12:00:26.502Z,19.20
2023-01-23T12:02:07.708Z,20.03
2023-01-23T12:03:59.815Z,19.63
2023-01-23T12:05:45.269Z,19.83
2023-01-23T12:07:21.139Z,20.10
2023-01-23T12:08:59.752Z,20.10
2023-01-23T12:10:38.009Z,19.50
2023-01-23T12:12:17.290Z,20.27
2023-01-23T12:13:58.471Z,19.97
2023-01-23T12:15:37.188Z,20.43
2023-01-23T12:17:20.138Z,19.70
2023-01-23T12:19:02.907Z,20.90
2023-01-23T12:20:43.656Z,19.90
2023-01-23T12:22:18.126Z,22.57
2023-01-23T12:24:03.832Z,19.53
2023-01-23T12:25:38.265Z,20.50
2023-01-23T12:27:15.817Z,20.40
2023-01-23T12:28:59.813Z,19.93
2023-01-23T12:30:51.124Z,21.17
2023-01-23T12:32:34.451Z,18.77
2023-01-23T12:34:13.999Z,19.47
2023-01-23T12:35:49.795Z,20.80
2023-01-23T12:37:31.167Z,21.20
2023-01-23T12:39:08.721Z,19.20
2023-01-23T12:40:43.751Z,19.73
2023-01-23T12:42:20.571Z,20.33
2023-01-23T12:43:58.997Z,20.13
2023-01-23T12:45:32.913Z,20.33
2023-01-23T12:47:07.650Z,20.13
2023-01-23T12:48:43.714Z,21.07
2023-01-23T12:50:21.339Z,19.27
2023-01-23T12:51:57.142Z,19.67
2023-01-23T12:53:33.021Z,19.40
2023-01-23T12:55:09.025Z,19.80
2023-01-23T12:56:42.835Z,20.93
2023-01-23T12:58:17.885Z,18.70
2023-01-23T13:00:00.016Z,19.90
2023-01-23T13:01:42.084Z,19.40
2023-01-23T13:03:23.012Z,20.37
2023-01-23T13:05:01.991Z,20.30
2023-01-23T13:06:43.317Z,21.70
2023-01-23T13:08:22.333Z,19.03
2023-01-23T13:10:07.759Z,19.50
2023-01-23T13:11:44.869Z,20.20
2023-01-23T13:13:19.280Z,21.07
2023-01-23T13:15:13.423Z,21.80
2023-01-23T13:16:49.471Z,18.67
2023-01-23T13:18:24.582Z,20.53
2023-01-23T13:20:30.308Z,21.13
2023-01-23T13:22:04.714Z,21.93
2023-01-23T13:23:38.406Z,20.73
2023-01-23T13:25:14.158Z,19.67
2023-01-23T13:26:47.578Z,21.10
2023-01-23T13:28:35.449Z,20.37
2023-01-23T13:30:36.380Z,18.50
2023-01-23T13:32:23.592Z,20.50
2023-01-23T13:34:10.104Z,20.77
2023-01-23T13:35:56.008Z,20.00
2023-01-23T13:37:52.087Z,20.63
2023-01-23T13:39:27.800Z,22.77
2023-01-23T13:41:21.477Z,21.47
2023-01-23T13:42:54.940Z,21.07
2023-01-23T13:44:40.742Z,22.87
2023-01-23T13:46:21.888Z,21.93
2023-01-23T14:21:02.145Z,26.03
2023-01-23T14:22:37.200Z,26.33
2023-01-23T14:24:26.454Z,24.80
2023-01-23T14:26:00.078Z,27.17
2023-01-23T14:27:51.363Z,25.23
2023-01-23T14:29:27.128Z,27.63
2023-01-23T14:31:01.865Z,26.23
2023-01-23T14:32:35.611Z,27.40
2023-01-23T14:34:18.695Z,29.40
2023-01-23T14:35:52.681Z,30.60
2023-01-23T14:37:26.528Z,46.10
2023-01-23T14:39:02.410Z,48.07
2023-01-23T14:40:49.295Z,44.58
2023-01-23T14:42:25.441Z,33.00
2023-01-23T14:44:00.006Z,42.00
2023-01-23T14:45:34.097Z,38.70
2023-01-23T14:47:08.158Z,46.53
2023-01-23T14:48:43.109Z,39.03
2023-01-23T14:50:19.702Z,32.43
2023-01-23T14:51:57.209Z,41.53
2023-01-23T14:53:30.573Z,41.07
2023-01-23T14:55:08.072Z,37.30
2023-01-23T14:56:42.053Z,31.97
2023-01-23T14:58:17.071Z,31.23
2023-01-23T14:59:50.781Z,32.23
2023-01-23T15:01:24.435Z,30.80
2023-01-23T15:02:57.845Z,31.17
2023-01-23T15:04:32.131Z,30.50
2023-01-23T15:06:08.294Z,30.25
2023-01-23T15:07:45.197Z,30.95
2023-01-23T15:09:19.155Z,32.17
2023-01-23T15:10:55.376Z,31.17
2023-01-23T15:12:29.300Z,30.25
2023-01-23T15:14:03.487Z,31.45
2023-01-23T15:15:36.878Z,31.17
2023-01-23T15:17:15.408Z,32.90
2023-01-23T15:18:53.106Z,36.40
2023-01-23T15:20:30.571Z,32.70
2023-01-23T15:22:07.920Z,33.38
2023-01-23T15:23:42.022Z,33.67
2023-01-23T15:25:28.868Z,34.88
2023-01-23T15:27:08.854Z,35.42
2023-01-23T15:28:43.056Z,34.20
2023-01-23T15:30:35.370Z,33.03
2023-01-23T15:32:17.538Z,35.67
2023-01-23T15:33:50.949Z,34.83
2023-01-23T15:35:24.327Z,35.10
2023-01-23T15:36:59.708Z,34.83
2023-01-23T15:38:33.138Z,31.67
2023-01-23T15:40:17.431Z,35.10
2023-01-23T15:41:52.124Z,33.60
2023-01-23T15:43:27.085Z,31.40
2023-01-23T15:45:01.986Z,31.57
2023-01-23T15:46:35.393Z,32.80
2023-01-23T15:48:08.887Z,31.75
2023-01-23T15:49:42.394Z,31.17
2023-01-23T15:51:16.019Z,31.67
2023-01-23T15:52:50.909Z,31.20
2023-01-23T15:54:26.405Z,33.23
2023-01-23T15:56:01.542Z,31.80
2023-01-23T15:57:35.535Z,33.27
2023-01-23T15:59:14.122Z,31.13
2023-01-23T16:00:47.509Z,30.95
2023-01-23T16:02:30.630Z,30.90
2023-01-23T16:04:05.182Z,32.23
2023-01-23T16:05:39.442Z,31.75
2023-01-23T16:07:18.475Z,30.70
2023-01-23T16:09:00.761Z,30.90
2023-01-23T16:10:39.490Z,30.98
2023-01-23T16:12:15.872Z,32.53
2023-01-23T16:13:49.467Z,33.20
2023-01-23T16:15:24.734Z,32.43
2023-01-23T16:17:04.715Z,31.47
2023-01-23T16:18:45.196Z,31.77
2023-01-23T16:20:19.288Z,34.37
2023-01-23T16:22:03.989Z,30.92
2023-01-23T16:23:47.238Z,32.00
2023-01-23T16:25:34.686Z,32.37
2023-01-23T16:27:18.233Z,32.30
2023-01-23T16:28:52.893Z,32.40
2023-01-23T16:30:29.030Z,32.63
2023-01-23T16:32:03.365Z,33.33
2023-01-23T16:33:36.809Z,32.70
2023-01-23T16:35:10.693Z,33.53
2023-01-23T16:36:44.266Z,33.17
2023-01-23T16:38:21.722Z,31.67
2023-01-23T16:39:55.107Z,34.70
2023-01-23T16:41:28.461Z,33.85
2023-01-23T16:43:03.044Z,35.37
2023-01-23T16:44:36.557Z,37.43
2023-01-23T16:46:11.640Z,36.70
2023-01-23T16:47:45.303Z,33.30
2023-01-23T16:49:18.697Z,33.87
2023-01-23T16:50:53.486Z,33.33
2023-01-23T16:52:27.215Z,34.03
2023-01-23T16:54:05.995Z,32.97
2023-01-23T16:55:46.525Z,33.17
2023-01-23T16:57:21.278Z,33.47
2023-01-23T16:58:54.671Z,33.23
2023-01-23T17:00:34.915Z,33.60
2023-01-23T17:02:15.278Z,31.92
2023-01-23T17:03:52.429Z,32.57
2023-01-23T17:05:25.860Z,29.83
2023-01-23T17:06:59.247Z,31.03
2023-01-23T17:08:32.621Z,31.83
2023-01-23T17:10:06.222Z,30.47
2023-01-23T17:11:40.429Z,30.57
2023-01-23T17:13:14.954Z,32.20
2023-01-23T17:14:48.957Z,32.43
2023-01-23T17:16:27.758Z,30.00
2023-01-23T17:18:02.920Z,32.50
2023-01-23T17:19:37.662Z,32.80
2023-01-23T17:21:15.875Z,30.23
2023-01-23T17:22:49.429Z,32.07
2023-01-23T17:24:22.862Z,30.77
2023-01-23T17:26:00.821Z,31.90
2023-01-23T17:27:44.598Z,30.97
2023-01-23T17:29:19.905Z,29.33
2023-01-23T17:30:54.264Z,30.60
2023-01-23T17:32:30.909Z,32.67
2023-01-23T17:34:05.700Z,31.27
2023-01-23T17:35:39.238Z,30.23
2023-01-23T17:37:14.806Z,29.57
2023-01-23T17:38:48.205Z,29.13
2023-01-23T17:40:22.146Z,33.30
2023-01-23T17:41:55.550Z,31.63
2023-01-23T17:43:29.398Z,30.98
2023-01-23T17:45:02.772Z,29.88
2023-01-23T17:46:39.384Z,31.30
2023-01-23T17:48:14.820Z,30.00
2023-01-23T17:49:54.475Z,30.00
2023-01-23T17:51:28.181Z,28.55
2023-01-23T17:53:01.589Z,29.55
2023-01-23T17:54:34.963Z,31.38
2023-01-23T17:56:08.803Z,45.20
2023-01-23T17:57:42.166Z,75.90
2023-01-23T17:59:15.516Z,36.83
2023-01-23T18:00:50.873Z,36.87
2023-01-23T18:02:27.439Z,31.80
2023-01-23T18:04:00.866Z,30.00
2023-01-23T18:05:35.757Z,31.17
2023-01-23T18:07:11.520Z,31.63
2023-01-23T18:08:45.203Z,30.55
2023-01-23T18:10:19.070Z,30.38
2023-01-23T18:11:54.361Z,31.10
2023-01-23T18:13:32.402Z,32.08
2023-01-23T18:15:10.031Z,32.00
2023-01-23T18:16:45.572Z,31.58
2023-01-23T18:18:22.867Z,30.97
2023-01-23T18:19:56.535Z,30.47
2023-01-23T18:21:31.755Z,29.83
2023-01-23T18:23:05.486Z,27.90
2023-01-23T18:24:39.146Z,29.07
2023-01-23T18:26:20.535Z,29.43
2023-01-23T18:27:55.304Z,30.47
2023-01-23T18:29:40.716Z,30.20
2023-01-23T18:31:18.001Z,28.80
2023-01-23T18:33:01.886Z,27.97
2023-01-23T18:34:39.471Z,28.73
2023-01-23T18:36:31.022Z,28.90
2023-01-23T18:38:10.037Z,29.17
2023-01-23T18:39:53.563Z,28.33
2023-01-23T18:41:27.456Z,27.60
2023-01-23T18:43:08.564Z,27.52
2023-01-23T18:44:43.233Z,28.40
2023-01-23T18:46:17.670Z,28.93
2023-01-23T18:47:51.237Z,27.05
2023-01-23T18:49:32.792Z,27.83
2023-01-23T18:51:09.741Z,27.30
2023-01-23T18:52:47.080Z,28.70
2023-01-23T18:54:25.292Z,27.33
2023-01-23T18:56:05.714Z,28.97
2023-01-23T18:57:45.835Z,27.73
2023-01-23T18:59:24.654Z,29.13
2023-01-23T19:01:00.134Z,29.67
2023-01-23T19:02:37.631Z,29.27
2023-01-23T19:04:14.851Z,28.97
2023-01-23T19:05:47.441Z,27.67
2023-01-23T19:07:21.322Z,27.75
2023-01-23T19:08:56.512Z,28.65
2023-01-23T19:10:40.159Z,28.93
2023-01-23T19:12:28.948Z,27.05
2023-01-23T19:14:09.606Z,27.87
2023-01-23T19:15:46.338Z,27.23
2023-01-23T19:17:25.676Z,27.90
2023-01-23T19:19:14.683Z,28.73
2023-01-23T19:20:51.273Z,27.60
2023-01-23T19:22:25.003Z,30.07
2023-01-23T19:23:59.818Z,29.67
2023-01-23T19:25:34.848Z,32.73
2023-01-23T19:27:12.752Z,45.07
2023-01-23T19:28:46.350Z,45.47
2023-01-23T19:30:20.722Z,38.70
2023-01-23T19:32:09.686Z,37.00
2023-01-23T19:33:43.121Z,32.90
2023-01-23T19:35:16.590Z,31.00
2023-01-23T19:36:49.954Z,30.73
2023-01-23T19:38:23.612Z,29.23
2023-01-23T19:39:57.043Z,38.47
2023-01-23T19:41:38.099Z,34.50
2023-01-23T19:43:15.305Z,31.60
2023-01-23T19:44:48.787Z,30.88
2023-01-23T19:46:23.259Z,29.92
2023-01-23T19:47:56.711Z,29.92
2023-01-23T19:49:30.062Z,27.70
2023-01-23T19:51:03.438Z,28.00
2023-01-23T19:52:36.857Z,29.87
2023-01-23T19:54:13.267Z,28.10
2023-01-23T19:55:46.658Z,28.23
2023-01-23T19:57:21.407Z,29.75
2023-01-23T19:58:56.168Z,30.35
2023-01-23T20:00:30.791Z,30.90
2023-01-23T20:02:04.153Z,30.00
2023-01-23T20:03:37.562Z,31.60
2023-01-23T20:05:11.520Z,30.23
2023-01-23T20:06:45.611Z,31.07
2023-01-23T20:08:19.114Z,31.30
2023-01-23T20:09:52.469Z,31.48
2023-01-23T20:11:25.831Z,31.95
2023-01-23T20:13:00.734Z,32.00
2023-01-23T20:14:34.125Z,33.17
2023-01-23T20:16:11.314Z,31.42
2023-01-23T20:17:43.678Z,33.05
2023-01-23T20:19:18.617Z,31.73
2023-01-23T20:20:51.978Z,32.13
2023-01-23T20:22:25.491Z,29.97
2023-01-23T20:23:58.972Z,32.20
2023-01-23T20:25:32.345Z,33.10
2023-01-23T20:27:05.703Z,31.47
2023-01-23T20:28:40.435Z,30.60
2023-01-23T20:30:15.204Z,30.67
2023-01-23T20:31:48.602Z,29.00
2023-01-23T20:33:22.192Z,31.02
2023-01-23T20:34:56.289Z,30.30
2023-01-23T20:36:29.880Z,30.17
2023-01-23T20:38:03.224Z,31.80
2023-01-23T20:39:36.658Z,31.60
2023-01-23T20:41:10.727Z,29.73
2023-01-23T20:42:44.134Z,32.13
2023-01-23T20:44:18.875Z,32.08
2023-01-23T20:45:52.856Z,29.63
2023-01-23T20:47:26.288Z,31.67
2023-01-23T20:49:01.574Z,31.40
2023-01-23T20:50:34.953Z,30.30
2023-01-23T20:52:26.105Z,29.07
2023-01-23T20:54:00.072Z,29.73
2023-01-23T20:55:33.506Z,29.47
2023-01-23T20:57:07.773Z,28.63
2023-01-23T20:58:59.534Z,29.00
2023-01-23T21:00:34.248Z,32.17
2023-01-23T21:02:27.104Z,32.40
2023-01-23T21:04:00.570Z,31.65
2023-01-23T21:05:33.976Z,33.97
2023-01-23T21:07:07.370Z,34.67
2023-01-23T21:08:40.980Z,32.92
2023-01-23T21:10:14.322Z,30.40
2023-01-23T21:11:49.734Z,31.13
2023-01-23T21:13:23.128Z,31.70
2023-01-23T21:14:56.470Z,31.93